createdAt,value
2023-01-29T00:01:51.826Z,3.14
2023-01-29T00:04:18.680Z,3.18
2023-01-29T00:06:45.038Z,3.29
2023-01-29T00:09:12.727Z,3.05
2023-01-29T00:11:39.857Z,2.97
2023-01-29T00:14:07.012Z,3.00
2023-01-29T00:16:33.416Z,2.79
2023-01-29T00:19:01.838Z,3.00
2023-01-29T00:21:31.043Z,3.07
2023-01-29T00:23:58.082Z,3.02
2023-01-29T00:26:24.788Z,3.10
2023-01-29T00:28:53.711Z,3.19
2023-01-29T00:31:22.916Z,3.11
2023-01-29T00:33:49.680Z,2.98
2023-01-29T00:36:18.412Z,3.15
2023-01-29T00:38:54.304Z,2.99
2023-01-29T00:41:40.310Z,3.12
2023-01-29T00:44:26.349Z,3.14
2023-01-29T00:46:52.829Z,3.18
2023-01-29T00:49:19.210Z,3.29
2023-01-29T00:52:05.548Z,3.38
2023-01-29T00:54:33.205Z,3.27
2023-01-29T00:56:59.870Z,3.26
2023-01-29T00:59:26.248Z,3.40
2023-01-29T01:02:11.733Z,3.39
2023-01-29T01:04:38.069Z,3.36
2023-01-29T01:07:04.543Z,3.45
2023-01-29T01:09:49.592Z,3.25
2023-01-29T01:12:15.943Z,3.07
2023-01-29T01:14:43.183Z,2.97
2023-01-29T01:17:09.737Z,3.09
2023-01-29T01:19:36.151Z,3.15
2023-01-29T01:22:04.809Z,3.12
2023-01-29T01:24:31.723Z,3.00
2023-01-29T01:26:58.067Z,3.12
2023-01-29T01:29:24.554Z,2.82
2023-01-29T01:31:53.490Z,2.60
2023-01-29T01:34:20.699Z,2.75
2023-01-29T01:36:47.016Z,2.90
2023-01-29T01:39:13.815Z,2.98
2023-01-29T01:41:40.491Z,2.96
2023-01-29T01:44:06.879Z,2.88
2023-01-29T01:46:37.065Z,2.81
2023-01-29T01:49:11.771Z,3.06
2023-01-29T01:51:44.943Z,3.26
2023-01-29T01:54:18.070Z,3.46
2023-01-29T01:56:50.003Z,3.28
2023-01-29T01:59:19.576Z,3.23
2023-01-29T02:01:53.865Z,3.37
2023-01-29T02:04:42.497Z,3.56
2023-01-29T02:07:32.709Z,3.45
2023-01-29T02:10:18.727Z,3.17
2023-01-29T02:12:45.618Z,3.22
2023-01-29T02:15:13.033Z,3.31
2023-01-29T02:17:39.810Z,3.38
2023-01-29T02:20:17.833Z,3.41
2023-01-29T02:23:11.932Z,3.17
2023-01-29T02:26:20.982Z,3.29
2023-01-29T02:29:22.834Z,3.26
2023-01-29T02:31:56.135Z,2.83
2023-01-29T02:34:54.045Z,2.90
2023-01-29T02:37:27.049Z,2.70
2023-01-29T02:40:07.821Z,2.92
2023-01-29T02:42:44.352Z,3.05
2023-01-29T02:45:19.253Z,3.19
2023-01-29T02:47:50.548Z,3.37
2023-01-29T02:50:25.633Z,3.46
2023-01-29T02:53:02.003Z,3.56
2023-01-29T02:55:42.444Z,3.69
2023-01-29T02:58:16.884Z,3.71
2023-01-29T03:00:46.917Z,3.69
2023-01-29T03:03:35.568Z,3.68
2023-01-29T03:06:07.407Z,3.31
2023-01-29T03:08:49.901Z,3.18
2023-01-29T03:11:17.929Z,3.24
2023-01-29T03:14:16.780Z,3.51
2023-01-29T03:16:50.845Z,3.68
2023-01-29T03:19:22.494Z,3.76
2023-01-29T03:22:00.934Z,3.56
2023-01-29T03:24:49.065Z,3.58
2023-01-29T03:27:39.478Z,3.68
2023-01-29T03:30:26.252Z,3.79
2023-01-29T03:32:53.943Z,3.88
2023-01-29T03:35:33.523Z,3.83
2023-01-29T03:38:01.033Z,3.75
2023-01-29T03:40:35.214Z,3.79
2023-01-29T03:43:32.316Z,3.89
2023-01-29T03:46:08.280Z,3.84
2023-01-29T03:48:59.678Z,3.77
2023-01-29T03:51:42.526Z,3.80
2023-01-29T03:54:26.271Z,3.69
2023-01-29T03:56:57.155Z,3.70
2023-01-29T03:59:44.384Z,3.73
2023-01-29T04:02:27.686Z,3.72
2023-01-29T04:04:59.532Z,3.48
2023-01-29T04:07:29.579Z,3.73
2023-01-29T04:10:10.474Z,3.85
2023-01-29T04:12:50.916Z,3.92
2023-01-29T04:15:18.919Z,3.87
2023-01-29T04:17:50.594Z,3.87
2023-01-29T04:20:17.726Z,3.74
2023-01-29T04:22:49.500Z,3.76
2023-01-29T04:25:26.447Z,3.45
2023-01-29T04:28:16.446Z,3.48
2023-01-29T04:30:53.189Z,3.62
2023-01-29T04:33:44.414Z,3.73
2023-01-29T04:37:02.554Z,3.48
2023-01-29T04:40:00.913Z,3.58
2023-01-29T04:42:54.892Z,3.74
2023-01-29T04:45:47.596Z,3.64
2023-01-29T04:48:23.518Z,3.58
2023-01-29T04:51:20.104Z,3.48
2023-01-29T04:54:06.073Z,3.32
2023-01-29T04:56:42.840Z,3.36
2023-01-29T04:59:14.055Z,3.48
2023-01-29T05:01:40.857Z,3.53
2023-01-29T05:04:14.051Z,3.55
2023-01-29T05:06:42.068Z,3.59
2023-01-29T05:09:09.746Z,3.46
2023-01-29T05:11:37.441Z,3.13
2023-01-29T05:14:07.215Z,3.05
2023-01-29T05:16:42.459Z,3.25
2023-01-29T05:19:14.796Z,3.33
2023-01-29T05:21:44.358Z,3.50
2023-01-29T05:24:17.208Z,3.46
2023-01-29T05:27:05.572Z,3.28
2023-01-29T05:29:31.936Z,3.32
2023-01-29T05:31:58.427Z,3.49
2023-01-29T05:34:25.040Z,3.52
2023-01-29T05:36:51.355Z,3.64
2023-01-29T05:39:17.729Z,3.68
2023-01-29T05:41:44.164Z,3.74
2023-01-29T05:44:11.199Z,3.54
2023-01-29T05:46:38.132Z,3.37
2023-01-29T05:49:05.301Z,3.22
2023-01-29T05:51:31.976Z,3.42
2023-01-29T05:53:58.303Z,3.30
2023-01-29T05:56:25.345Z,3.44
2023-01-29T05:58:52.541Z,3.55
2023-01-29T06:01:21.860Z,3.50
2023-01-29T06:03:48.301Z,3.60
2023-01-29T06:06:15.234Z,3.67
2023-01-29T06:08:41.576Z,3.74
2023-01-29T06:11:09.928Z,3.75
2023-01-29T06:13:36.307Z,3.86
2023-01-29T06:16:07.003Z,3.80
2023-01-29T06:18:33.703Z,3.87
2023-01-29T06:21:02.431Z,3.93
2023-01-29T06:23:29.195Z,3.96
2023-01-29T06:26:04.007Z,3.82
2023-01-29T06:28:30.787Z,3.83
2023-01-29T06:31:08.358Z,3.78
2023-01-29T06:33:42.992Z,3.83
2023-01-29T06:36:09.634Z,3.84
2023-01-29T06:38:35.960Z,3.39
2023-01-29T06:41:09.328Z,3.55
2023-01-29T06:43:35.687Z,3.53
2023-01-29T06:46:02.175Z,3.53
2023-01-29T06:48:28.540Z,3.49
2023-01-29T06:50:55.149Z,3.67
2023-01-29T06:53:22.024Z,3.80
2023-01-29T06:55:52.780Z,3.67
2023-01-29T06:58:19.485Z,3.61
2023-01-29T07:00:45.863Z,3.47
2023-01-29T07:03:12.356Z,3.67
2023-01-29T07:05:38.908Z,3.79
2023-01-29T07:08:05.860Z,3.64
2023-01-29T07:10:32.222Z,3.65
2023-01-29T07:12:59.399Z,3.63
2023-01-29T07:15:25.781Z,3.56
2023-01-29T07:17:57.049Z,3.51
2023-01-29T07:20:25.361Z,3.58
2023-01-29T07:22:51.718Z,3.65
2023-01-29T07:25:18.063Z,3.73
2023-01-29T07:27:44.382Z,3.65
2023-01-29T07:30:11.382Z,3.68
2023-01-29T07:32:38.020Z,3.73
2023-01-29T07:35:04.739Z,3.65
2023-01-29T07:37:31.083Z,3.76
2023-01-29T07:39:57.406Z,3.83
2023-01-29T07:42:23.844Z,3.92
2023-01-29T07:44:50.356Z,4.01
2023-01-29T07:47:17.367Z,3.89
2023-01-29T07:49:43.743Z,3.98
2023-01-29T07:52:10.084Z,4.01
2023-01-29T07:54:36.499Z,4.09
2023-01-29T07:57:03.094Z,4.00
2023-01-29T07:59:29.474Z,3.95
2023-01-29T08:01:55.811Z,4.02
2023-01-29T08:04:22.166Z,4.06
2023-01-29T08:06:48.516Z,4.03
2023-01-29T08:09:14.844Z,3.94
2023-01-29T08:11:41.224Z,4.06
2023-01-29T08:14:09.176Z,4.14
2023-01-29T08:16:35.738Z,4.12
2023-01-29T08:19:02.755Z,3.96
2023-01-29T08:21:29.497Z,3.88
2023-01-29T08:23:55.850Z,3.84
2023-01-29T08:26:22.403Z,3.96
2023-01-29T08:28:48.779Z,3.97
2023-01-29T08:31:16.205Z,3.87
2023-01-29T08:33:42.539Z,3.65
2023-01-29T08:36:09.608Z,3.76
2023-01-29T08:38:36.112Z,3.76
2023-01-29T08:41:02.503Z,3.92
2023-01-29T08:43:28.866Z,3.90
2023-01-29T08:45:55.244Z,4.02
2023-01-29T08:48:21.605Z,4.00
2023-01-29T08:50:48.025Z,3.87
2023-01-29T08:53:14.397Z,4.00
2023-01-29T08:55:40.933Z,3.95
2023-01-29T08:58:10.021Z,4.06
2023-01-29T09:00:37.190Z,4.14
2023-01-29T09:03:04.485Z,4.14
2023-01-29T09:05:30.920Z,3.97
2023-01-29T09:07:57.951Z,4.09
2023-01-29T09:10:24.481Z,4.05
2023-01-29T09:12:50.914Z,4.09
2023-01-29T09:15:17.683Z,4.03
2023-01-29T09:17:44.211Z,3.86
2023-01-29T09:20:11.101Z,4.00
2023-01-29T09:22:37.475Z,4.13
2023-01-29T09:25:04.299Z,3.99
2023-01-29T09:27:30.645Z,3.79
2023-01-29T09:29:57.174Z,3.70
2023-01-29T09:35:09.888Z,4.00
2023-01-29T09:37:36.417Z,3.97
2023-01-29T09:40:02.793Z,4.03
2023-01-29T09:42:44.041Z,4.03
2023-01-29T09:45:15.899Z,3.91
2023-01-29T09:47:42.631Z,3.96
2023-01-29T09:50:20.465Z,4.06
2023-01-29T09:53:10.695Z,4.24
2023-01-29T09:55:42.377Z,4.23
2023-01-29T09:58:18.479Z,4.02
2023-01-29T10:01:15.975Z,3.85
2023-01-29T10:04:11.920Z,4.10
2023-01-29T10:06:59.795Z,4.14
2023-01-29T10:09:57.340Z,4.24
2023-01-29T10:12:53.504Z,4.17
2023-01-29T10:15:28.287Z,4.28
2023-01-29T10:18:23.337Z,4.30
2023-01-29T10:20:49.996Z,4.31
2023-01-29T10:23:25.110Z,4.29
2023-01-29T10:25:52.154Z,4.11
2023-01-29T10:28:25.426Z,4.16
2023-01-29T10:30:59.807Z,4.12
2023-01-29T10:33:54.266Z,3.97
2023-01-29T10:36:53.820Z,4.13
2023-01-29T10:39:22.524Z,4.25
2023-01-29T10:42:19.169Z,4.46
2023-01-29T10:44:54.308Z,4.50
2023-01-29T10:47:32.208Z,4.35
2023-01-29T10:50:13.837Z,4.49
2023-01-29T10:52:50.694Z,4.53
2023-01-29T10:55:30.481Z,4.47
2023-01-29T10:58:27.288Z,4.58
2023-01-29T11:00:53.701Z,4.45
2023-01-29T11:03:29.739Z,4.41
2023-01-29T11:06:05.557Z,4.39
2023-01-29T11:08:40.073Z,4.40
2023-01-29T11:11:21.835Z,4.46
2023-01-29T11:14:02.708Z,4.47
2023-01-29T11:16:30.263Z,4.61
2023-01-29T11:19:01.129Z,4.70
2023-01-29T11:21:29.123Z,4.67
2023-01-29T11:24:15.283Z,4.78
2023-01-29T11:26:42.995Z,4.81
2023-01-29T11:29:28.780Z,4.85
2023-01-29T11:31:56.717Z,4.92
2023-01-29T11:34:29.136Z,4.96
2023-01-29T11:37:04.935Z,4.85
2023-01-29T11:39:32.796Z,4.78
2023-01-29T11:42:04.539Z,4.75
2023-01-29T11:44:40.842Z,4.78
2023-01-29T11:47:20.540Z,4.82
2023-01-29T11:49:48.759Z,4.78
2023-01-29T11:52:18.739Z,4.78
2023-01-29T11:54:58.665Z,4.81
2023-01-29T11:57:38.681Z,4.87
2023-01-29T12:00:17.262Z,4.80
2023-01-29T12:02:46.776Z,4.86
2023-01-29T12:05:22.033Z,4.87
2023-01-29T12:08:00.241Z,4.80
2023-01-29T12:10:37.204Z,4.73
2023-01-29T12:13:20.841Z,4.81
2023-01-29T12:15:48.566Z,4.87
2023-01-29T12:18:39.921Z,4.90
2023-01-29T12:21:18.140Z,4.86
2023-01-29T12:23:57.620Z,4.81
2023-01-29T12:26:34.778Z,4.94
2023-01-29T12:29:08.336Z,4.96
2023-01-29T12:32:07.793Z,4.97
2023-01-29T12:34:39.155Z,4.96
2023-01-29T12:37:35.775Z,5.04
2023-01-29T12:40:02.408Z,5.07
2023-01-29T12:42:29.853Z,5.01
2023-01-29T12:45:08.584Z,4.91
2023-01-29T12:47:43.699Z,5.04
2023-01-29T12:50:28.120Z,5.12
2023-01-29T12:53:38.860Z,5.14
2023-01-29T12:56:23.569Z,5.20
2023-01-29T12:58:54.209Z,5.20
2023-01-29T13:01:33.092Z,5.17
2023-01-29T13:04:30.667Z,5.21
2023-01-29T13:07:12.168Z,5.21
2023-01-29T13:09:43.384Z,5.25
2023-01-29T13:12:16.910Z,4.79
2023-01-29T13:14:54.777Z,4.70
2023-01-29T13:17:30.279Z,4.61
2023-01-29T13:20:03.857Z,4.67
2023-01-29T13:22:36.679Z,4.70
2023-01-29T13:25:05.659Z,4.65
2023-01-29T13:27:35.267Z,4.65
2023-01-29T13:30:02.241Z,4.67
2023-01-29T13:32:35.540Z,4.76
2023-01-29T13:35:12.711Z,4.84
2023-01-29T13:37:47.506Z,4.86
2023-01-29T13:40:25.324Z,4.93
2023-01-29T13:42:55.545Z,4.97
2023-01-29T13:45:30.321Z,4.87
2023-01-29T13:48:21.667Z,4.87
2023-01-29T13:50:50.361Z,4.86
2023-01-29T13:53:40.161Z,4.96
2023-01-29T13:56:34.619Z,4.97
2023-01-29T13:59:03.666Z,4.96
2023-01-29T14:01:48.315Z,4.96
2023-01-29T14:04:28.294Z,5.00
2023-01-29T14:06:55.973Z,4.99
2023-01-29T14:09:40.599Z,4.92
2023-01-29T14:12:22.150Z,5.00
2023-01-29T14:14:48.807Z,4.94
2023-01-29T14:17:17.111Z,4.24
2023-01-29T14:19:51.873Z,3.77
2023-01-29T14:22:27.466Z,3.22
2023-01-29T14:24:57.330Z,2.84
2023-01-29T14:27:27.546Z,3.15
2023-01-29T14:30:06.670Z,2.95
2023-01-29T14:32:33.552Z,2.78
2023-01-29T14:35:03.289Z,3.08
2023-01-29T14:37:34.414Z,2.98
2023-01-29T14:40:13.045Z,3.10
2023-01-29T14:42:47.709Z,3.20
2023-01-29T14:45:30.619Z,3.07
2023-01-29T14:48:18.099Z,2.67
2023-01-29T14:50:53.307Z,2.65
2023-01-29T14:53:31.749Z,2.49
2023-01-29T14:56:10.284Z,2.48
2023-01-29T14:58:41.616Z,2.44
2023-01-29T15:01:19.498Z,2.72
2023-01-29T15:03:49.829Z,2.83
2023-01-29T15:06:27.250Z,2.88
2023-01-29T15:09:04.021Z,2.85
2023-01-29T15:11:37.638Z,2.68
2023-01-29T15:14:23.750Z,2.57
2023-01-29T15:17:00.549Z,2.49
2023-01-29T15:19:35.849Z,2.66
2023-01-29T15:22:20.858Z,2.33
2023-01-29T15:25:02.184Z,1.96
2023-01-29T15:27:28.899Z,2.25
2023-01-29T15:30:07.973Z,2.57
2023-01-29T15:32:37.477Z,2.78
2023-01-29T15:35:36.232Z,3.08
2023-01-29T15:38:18.020Z,2.59
2023-01-29T15:41:02.080Z,2.45
2023-01-29T15:43:49.249Z,2.33
2023-01-29T15:46:24.356Z,2.35
2023-01-29T15:48:52.517Z,2.54
2023-01-29T15:51:22.449Z,2.45
2023-01-29T15:53:58.184Z,1.75
2023-01-29T15:56:28.780Z,2.10
2023-01-29T15:58:58.765Z,2.40
2023-01-29T16:01:29.066Z,2.47
2023-01-29T16:03:59.346Z,2.64
2023-01-29T16:06:26.762Z,2.91
2023-01-29T16:08:54.555Z,2.28
2023-01-29T16:11:21.304Z,2.28
2023-01-29T16:13:50.413Z,2.01
2023-01-29T16:16:21.659Z,1.96
2023-01-29T16:18:59.979Z,2.02
2023-01-29T16:21:43.426Z,2.42
2023-01-29T16:24:22.068Z,2.29
2023-01-29T16:26:51.321Z,2.54
2023-01-29T16:29:23.510Z,2.64
2023-01-29T16:32:00.394Z,2.93
2023-01-29T16:34:31.735Z,3.18
2023-01-29T16:37:00.444Z,3.41
2023-01-29T16:39:36.666Z,3.44
2023-01-29T16:42:19.908Z,3.49
2023-01-29T16:45:26.304Z,3.54
2023-01-29T16:48:25.848Z,3.35
2023-01-29T16:51:04.013Z,3.51
2023-01-29T16:53:30.389Z,3.27
2023-01-29T16:56:02.608Z,3.30
2023-01-29T16:58:30.213Z,2.93
2023-01-29T17:01:01.108Z,2.54
2023-01-29T17:03:30.258Z,2.28
2023-01-29T17:05:56.735Z,2.05
2023-01-29T17:08:31.679Z,2.09
2023-01-29T17:10:59.144Z,2.20
2023-01-29T17:13:30.407Z,2.35
2023-01-29T17:16:04.817Z,2.19
2023-01-29T17:18:31.430Z,2.28
2023-01-29T17:20:57.950Z,2.41
2023-01-29T17:23:24.298Z,2.47
2023-01-29T17:25:51.688Z,2.42
2023-01-29T17:28:18.510Z,2.43
2023-01-29T17:30:53.332Z,2.32
2023-01-29T17:33:25.687Z,2.24
2023-01-29T17:35:52.752Z,2.22
2023-01-29T17:38:26.106Z,2.11
2023-01-29T17:41:05.473Z,2.04
2023-01-29T17:43:32.008Z,2.31
2023-01-29T17:45:58.363Z,2.27
2023-01-29T17:48:29.317Z,2.34
2023-01-29T17:50:58.654Z,2.47
2023-01-29T17:53:28.487Z,2.25
2023-01-29T17:55:59.436Z,2.17
2023-01-29T17:58:26.837Z,2.16
2023-01-29T18:00:54.261Z,2.22
2023-01-29T18:03:22.233Z,2.31
2023-01-29T18:05:49.727Z,2.07
2023-01-29T18:08:18.988Z,2.05
2023-01-29T18:10:46.508Z,2.00
2023-01-29T18:13:13.393Z,2.11
2023-01-29T18:15:39.970Z,1.99
2023-01-29T18:18:10.313Z,1.83
2023-01-29T18:20:38.363Z,1.76
2023-01-29T18:23:06.241Z,1.88
2023-01-29T18:25:34.129Z,2.07
2023-01-29T18:28:00.997Z,1.91
2023-01-29T18:30:27.689Z,1.77
2023-01-29T18:32:54.360Z,1.81
2023-01-29T18:35:21.424Z,1.89
2023-01-29T18:37:47.806Z,1.75
2023-01-29T18:40:17.025Z,1.57
2023-01-29T18:42:45.007Z,1.53
2023-01-29T18:45:12.253Z,1.49
2023-01-29T18:47:39.379Z,1.58
2023-01-29T18:50:07.666Z,1.52
2023-01-29T18:52:34.316Z,1.69
2023-01-29T18:55:03.363Z,1.60
2023-01-29T18:58:28.307Z,1.58
2023-01-29T19:00:16.452Z,1.68
2023-01-29T19:02:44.865Z,1.65
2023-01-29T19:05:11.194Z,1.51
2023-01-29T19:07:37.663Z,1.55
2023-01-29T19:10:06.723Z,1.54
2023-01-29T19:12:34.185Z,1.65
2023-01-29T19:15:00.963Z,1.77
2023-01-29T19:17:27.652Z,2.02
2023-01-29T19:19:56.303Z,2.22
2023-01-29T19:22:22.644Z,2.33
2023-01-29T19:24:49.000Z,2.72
2023-01-29T19:27:15.351Z,2.65
2023-01-29T19:29:41.724Z,2.78
2023-01-29T19:32:09.825Z,2.62
2023-01-29T19:34:36.697Z,2.45
2023-01-29T19:37:03.581Z,2.43
2023-01-29T19:39:33.613Z,2.59
2023-01-29T19:42:01.006Z,2.94
2023-01-29T19:44:27.733Z,2.67
2023-01-29T19:46:54.057Z,2.38
2023-01-29T19:49:20.424Z,2.63
2023-01-29T19:51:46.831Z,2.50
2023-01-29T19:54:13.148Z,2.47
2023-01-29T19:56:39.604Z,2.16
2023-01-29T19:59:07.242Z,2.10
2023-01-29T20:01:33.980Z,2.54
2023-01-29T20:04:00.374Z,2.54
2023-01-29T20:06:31.043Z,2.62
2023-01-29T20:08:57.979Z,2.28
2023-01-29T20:11:24.971Z,2.15
2023-01-29T20:13:52.148Z,2.09
2023-01-29T20:16:19.520Z,1.83
2023-01-29T20:18:46.087Z,1.80
2023-01-29T20:21:20.266Z,1.64
2023-01-29T20:23:49.251Z,1.47
2023-01-29T20:26:17.352Z,1.37
2023-01-29T20:28:46.202Z,1.25
2023-01-29T20:31:12.664Z,1.21
2023-01-29T20:33:39.757Z,1.26
2023-01-29T20:36:09.138Z,1.39
2023-01-29T20:38:36.434Z,1.44
2023-01-29T20:41:07.946Z,1.25
2023-01-29T20:43:35.337Z,1.27
2023-01-29T20:46:01.943Z,1.09
2023-01-29T20:48:28.552Z,1.16
2023-01-29T20:50:54.956Z,1.10
2023-01-29T20:53:21.297Z,0.99
2023-01-29T20:55:47.848Z,0.75
2023-01-29T20:58:14.319Z,0.79
2023-01-29T21:00:41.253Z,0.81
2023-01-29T21:03:07.731Z,0.77
2023-01-29T21:05:34.048Z,0.72
2023-01-29T21:08:00.391Z,0.75
2023-01-29T21:10:26.736Z,0.62
2023-01-29T21:12:54.492Z,0.66
2023-01-29T21:15:21.055Z,0.74
2023-01-29T21:17:47.964Z,0.59
2023-01-29T21:20:14.768Z,0.66
2023-01-29T21:22:43.847Z,0.68
2023-01-29T21:25:11.405Z,0.81
2023-01-29T21:27:37.778Z,0.94
2023-01-29T21:30:04.555Z,1.00
2023-01-29T21:32:30.959Z,0.65
2023-01-29T21:34:57.515Z,0.46
2023-01-29T21:37:24.148Z,0.65
2023-01-29T21:39:50.481Z,0.57
2023-01-29T21:42:35.460Z,0.47
2023-01-29T21:45:01.845Z,0.58
2023-01-29T21:47:28.195Z,0.49
2023-01-29T21:49:54.573Z,0.45
2023-01-29T21:52:20.921Z,0.56
2023-01-29T21:54:49.169Z,0.61
2023-01-29T21:57:16.353Z,0.94
2023-01-29T21:59:43.431Z,0.65
2023-01-29T22:02:14.674Z,0.21
2023-01-29T22:04:42.207Z,0.28
2023-01-29T22:07:10.372Z,0.13
2023-01-29T22:09:37.172Z,0.00
2023-01-29T22:12:05.391Z,0.11
2023-01-29T22:14:31.966Z,0.03
2023-01-29T22:16:58.507Z,-0.01
2023-01-29T22:19:29.276Z,0.19
2023-01-29T22:21:56.080Z,0.14
2023-01-29T22:24:22.523Z,0.26
2023-01-29T22:26:49.602Z,0.35
2023-01-29T22:29:19.461Z,0.35
2023-01-29T22:31:46.311Z,0.51
2023-01-29T22:34:14.103Z,0.35
2023-01-29T22:36:40.900Z,0.27
2023-01-29T22:39:08.307Z,0.36
2023-01-29T22:41:34.780Z,0.16
2023-01-29T22:44:01.721Z,0.05
2023-01-29T22:46:28.202Z,0.10
2023-01-29T22:48:54.838Z,-0.08
2023-01-29T22:51:21.272Z,-0.15
2023-01-29T22:53:52.922Z,-0.21
2023-01-29T22:56:21.480Z,-0.18
2023-01-29T22:58:52.099Z,-0.26
2023-01-29T23:01:23.665Z,-0.32
2023-01-29T23:03:50.219Z,-0.41
2023-01-29T23:06:18.242Z,-0.34
2023-01-29T23:08:44.710Z,-0.30
2023-01-29T23:11:15.839Z,-0.18
2023-01-29T23:13:48.359Z,-0.08
2023-01-29T23:16:16.708Z,-0.04
2023-01-29T23:18:44.472Z,0.18
2023-01-29T23:21:11.329Z,-0.02
2023-01-29T23:23:38.436Z,0.09
2023-01-29T23:26:25.678Z,-0.15
2023-01-29T23:28:52.075Z,-0.32
2023-01-29T23:31:18.532Z,-0.31
2023-01-29T23:33:45.063Z,-0.33
2023-01-29T23:36:11.518Z,-0.31
2023-01-29T23:38:38.396Z,-0.30
2023-01-29T23:41:04.861Z,-0.09
2023-01-29T23:43:31.613Z,-0.11
2023-01-29T23:45:58.359Z,-0.05
2023-01-29T23:48:25.041Z,0.04
2023-01-29T23:50:51.534Z,-0.17
2023-01-29T23:53:18.337Z,-0.29
2023-01-29T23:55:58.858Z,-0.26
2023-01-29T23:58:26.164Z,-0.19
